createdAt,value
2023-10-25T00:00:38.993Z,2.10
2023-10-25T00:01:38.862Z,2.20
2023-10-25T00:03:42.879Z,2.50
2023-10-25T00:04:42.860Z,2.10
2023-10-25T00:06:46.763Z,2.20
2023-10-25T00:07:46.693Z,2.00
2023-10-25T00:09:50.670Z,1.90
2023-10-25T00:10:50.608Z,1.90
2023-10-25T00:12:54.600Z,1.90
2023-10-25T00:13:54.539Z,2.30
2023-10-25T00:15:58.513Z,2.20
2023-10-25T00:16:58.478Z,2.10
2023-10-25T00:19:02.471Z,2.00
2023-10-25T00:20:02.373Z,2.20
2023-10-25T00:21:55.318Z,2.10
2023-10-25T00:22:55.246Z,2.30
2023-10-25T00:24:59.263Z,2.00
2023-10-25T00:25:59.171Z,1.90
2023-10-25T00:28:03.177Z,2.30
2023-10-25T00:29:03.073Z,1.90
2023-10-25T00:31:07.089Z,2.00
2023-10-25T00:32:07.085Z,2.30
2023-10-25T00:34:11.004Z,2.10
2023-10-25T00:35:10.914Z,2.00
2023-10-25T00:37:14.937Z,2.10
2023-10-25T00:38:14.827Z,1.80
2023-10-25T00:40:18.872Z,1.80
2023-10-25T00:41:18.761Z,1.70
2023-10-25T00:43:22.724Z,1.90
2023-10-25T00:44:22.668Z,1.90
2023-10-25T00:46:26.751Z,2.00
2023-10-25T00:47:26.618Z,2.20
2023-10-25T00:49:30.579Z,1.90
2023-10-25T00:50:30.519Z,1.80
2023-10-25T00:52:23.467Z,1.90
2023-10-25T00:53:23.360Z,1.80
2023-10-25T00:55:27.326Z,2.00
2023-10-25T00:56:27.286Z,2.00
2023-10-25T01:00:08.350Z,1.70
2023-10-25T01:01:08.349Z,1.80
2023-10-25T01:03:12.420Z,1.90
2023-10-25T01:04:12.306Z,2.00
2023-10-25T01:06:16.176Z,1.80
2023-10-25T01:07:16.188Z,2.00
2023-10-25T01:09:20.110Z,2.00
2023-10-25T01:10:20.105Z,1.90
2023-10-25T01:12:12.956Z,1.80
2023-10-25T01:13:12.943Z,1.90
2023-10-25T01:15:16.910Z,1.80
2023-10-25T01:16:16.942Z,1.70
2023-10-25T01:18:20.797Z,1.90
2023-10-25T01:19:20.778Z,2.10
2023-10-25T01:21:24.712Z,1.80
2023-10-25T01:22:24.674Z,2.00
2023-10-25T01:24:28.627Z,1.90
2023-10-25T01:25:28.592Z,1.90
2023-10-25T01:27:32.577Z,2.00
2023-10-25T01:28:32.536Z,1.90
2023-10-25T01:30:36.518Z,1.80
2023-10-25T01:31:36.483Z,1.70
2023-10-25T01:33:40.423Z,1.80
2023-10-25T01:34:40.373Z,1.80
2023-10-25T01:36:44.347Z,1.90
2023-10-25T01:37:44.291Z,1.60
2023-10-25T01:39:48.260Z,1.80
2023-10-25T01:40:48.210Z,1.80
2023-10-25T01:42:52.260Z,2.10
2023-10-25T01:43:52.117Z,2.00
2023-10-25T01:45:56.156Z,2.10
2023-10-25T01:46:56.092Z,2.00
2023-10-25T01:49:00.067Z,2.20
2023-10-25T01:49:59.984Z,2.10
2023-10-25T01:51:52.919Z,2.60
2023-10-25T01:52:52.826Z,2.00
2023-10-25T01:54:56.833Z,2.40
2023-10-25T01:55:56.746Z,2.20
2023-10-25T01:58:00.804Z,2.40
2023-10-25T01:59:00.665Z,2.50
2023-10-25T02:01:04.671Z,2.30
2023-10-25T02:02:04.625Z,2.30
2023-10-25T02:04:08.666Z,2.30
2023-10-25T02:05:08.498Z,2.30
2023-10-25T02:07:12.533Z,2.50
2023-10-25T02:08:12.414Z,2.10
2023-10-25T02:10:16.437Z,2.10
2023-10-25T02:11:16.337Z,2.00
2023-10-25T02:13:20.327Z,2.10
2023-10-25T02:14:20.258Z,2.50
2023-10-25T02:16:24.371Z,2.60
2023-10-25T02:17:24.186Z,2.10
2023-10-25T02:19:28.140Z,2.20
2023-10-25T02:20:28.090Z,2.10
2023-10-25T02:22:20.991Z,2.20
2023-10-25T02:23:20.926Z,2.30
2023-10-25T02:25:24.909Z,2.20
2023-10-25T02:26:24.885Z,2.30
2023-10-25T02:28:28.888Z,2.40
2023-10-25T02:29:28.771Z,2.00
2023-10-25T02:31:32.806Z,2.50
2023-10-25T02:32:32.744Z,2.10
2023-10-25T02:34:36.682Z,2.40
2023-10-25T02:35:36.641Z,2.30
2023-10-25T02:37:40.612Z,2.20
2023-10-25T02:38:40.556Z,2.30
2023-10-25T02:40:44.520Z,2.30
2023-10-25T02:41:44.497Z,2.00
2023-10-25T02:43:48.442Z,2.40
2023-10-25T02:44:48.390Z,2.30
2023-10-25T02:46:52.413Z,2.10
2023-10-25T02:47:52.363Z,2.50
2023-10-25T02:49:56.289Z,2.50
2023-10-25T02:50:56.239Z,2.50
2023-10-25T02:53:00.212Z,2.50
2023-10-25T02:54:00.156Z,2.60
2023-10-25T02:56:04.128Z,2.70
2023-10-25T02:57:04.057Z,2.30
2023-10-25T02:59:08.124Z,2.70
2023-10-25T03:00:08.068Z,2.60
2023-10-25T03:01:08.232Z,2.50
2023-10-25T03:02:08.020Z,2.50
2023-10-25T03:03:08.083Z,2.90
2023-10-25T03:04:08.006Z,2.80
2023-10-25T03:05:08.028Z,2.60
2023-10-25T03:06:07.897Z,2.70
2023-10-25T03:07:07.988Z,2.70
2023-10-25T03:08:07.847Z,2.50
2023-10-25T03:09:07.855Z,2.50
2023-10-25T03:10:07.810Z,2.50
2023-10-25T03:11:07.767Z,2.50
2023-10-25T03:12:07.736Z,2.40
2023-10-25T03:13:07.859Z,2.80
2023-10-25T03:14:07.727Z,2.40
2023-10-25T03:15:07.690Z,2.60
2023-10-25T03:16:07.658Z,2.60
2023-10-25T03:17:07.606Z,2.90
2023-10-25T03:18:07.568Z,2.50
2023-10-25T03:19:07.706Z,2.40
2023-10-25T03:20:07.529Z,2.40
2023-10-25T03:21:07.546Z,2.60
2023-10-25T03:22:07.528Z,2.80
2023-10-25T03:23:07.549Z,2.70
2023-10-25T03:24:07.418Z,2.80
2023-10-25T03:25:07.556Z,2.60
2023-10-25T03:26:07.391Z,2.80
2023-10-25T03:27:07.388Z,2.80
2023-10-25T03:28:07.345Z,2.60
2023-10-25T03:29:07.396Z,2.70
2023-10-25T03:30:07.303Z,2.70
2023-10-25T03:31:07.449Z,2.90
2023-10-25T03:32:14.414Z,3.30
2023-10-25T03:34:11.216Z,2.90
2023-10-25T03:35:11.131Z,3.00
2023-10-25T03:37:15.252Z,3.30
2023-10-25T03:38:15.104Z,3.30
2023-10-25T03:40:19.200Z,3.40
2023-10-25T03:41:19.112Z,3.40
2023-10-25T03:43:23.204Z,3.50
2023-10-25T03:44:23.126Z,3.60
2023-10-25T03:46:27.274Z,3.60
2023-10-25T03:47:27.221Z,3.90
2023-10-25T03:49:31.248Z,3.60
2023-10-25T03:50:31.171Z,3.60
2023-10-25T03:52:24.202Z,3.70
2023-10-25T03:53:24.115Z,3.80
2023-10-25T03:55:28.209Z,3.80
2023-10-25T03:56:28.131Z,3.70
2023-10-25T03:58:32.241Z,3.50
2023-10-25T03:59:32.158Z,3.70
2023-10-25T04:01:36.322Z,3.80
2023-10-25T04:02:36.166Z,4.00
2023-10-25T04:04:40.334Z,4.20
2023-10-25T04:05:40.183Z,4.20
2023-10-25T04:07:44.285Z,4.00
2023-10-25T04:08:44.192Z,3.50
2023-10-25T04:10:48.283Z,3.80
2023-10-25T04:11:48.219Z,4.10
2023-10-25T04:13:52.306Z,4.00
2023-10-25T04:14:52.216Z,3.80
2023-10-25T04:16:56.329Z,3.80
2023-10-25T04:17:56.267Z,4.10
2023-10-25T04:20:00.329Z,4.20
2023-10-25T04:21:00.255Z,3.70
2023-10-25T04:23:04.350Z,4.00
2023-10-25T04:24:04.265Z,3.80
2023-10-25T04:26:08.372Z,4.20
2023-10-25T04:27:08.289Z,3.90
2023-10-25T04:29:12.375Z,4.10
2023-10-25T04:30:12.317Z,3.60
2023-10-25T04:31:12.471Z,4.30
2023-10-25T04:32:12.251Z,4.00
2023-10-25T04:33:12.259Z,4.10
2023-10-25T04:34:12.246Z,3.90
2023-10-25T04:35:12.276Z,3.90
2023-10-25T04:36:12.169Z,3.70
2023-10-25T04:37:12.213Z,3.80
2023-10-25T04:38:12.078Z,3.50
2023-10-25T04:39:12.098Z,4.10
2023-10-25T04:40:12.060Z,3.20
2023-10-25T04:41:12.024Z,3.60
2023-10-25T04:42:11.983Z,3.70
2023-10-25T04:43:12.069Z,3.70
2023-10-25T04:44:11.926Z,3.20
2023-10-25T04:45:11.934Z,3.50
2023-10-25T04:46:11.918Z,3.80
2023-10-25T04:47:11.860Z,3.40
2023-10-25T04:48:11.810Z,3.20
2023-10-25T04:49:11.876Z,3.00
2023-10-25T04:50:11.776Z,3.30
2023-10-25T04:51:11.775Z,3.20
2023-10-25T04:52:11.742Z,3.50
2023-10-25T04:53:11.797Z,3.10
2023-10-25T04:54:11.667Z,3.20
2023-10-25T04:55:11.881Z,3.10
2023-10-25T04:56:11.655Z,3.40
2023-10-25T04:57:11.667Z,3.80
2023-10-25T04:58:11.805Z,3.40
2023-10-25T04:59:11.682Z,3.50
2023-10-25T05:00:11.564Z,3.40
2023-10-25T05:01:11.631Z,3.80
2023-10-25T05:02:11.441Z,3.00
2023-10-25T05:03:11.548Z,3.40
2023-10-25T05:04:11.443Z,3.20
2023-10-25T05:05:11.460Z,3.40
2023-10-25T05:06:11.344Z,3.30
2023-10-25T05:07:11.391Z,3.30
2023-10-25T05:08:11.286Z,3.40
2023-10-25T05:09:11.336Z,3.30
2023-10-25T05:10:11.285Z,3.20
2023-10-25T05:11:11.308Z,3.10
2023-10-25T05:12:11.167Z,3.40
2023-10-25T05:13:11.268Z,3.00
2023-10-25T05:14:11.122Z,3.00
2023-10-25T05:15:11.136Z,2.80
2023-10-25T05:16:11.093Z,2.60
2023-10-25T05:17:11.188Z,2.80
2023-10-25T05:18:11.021Z,2.70
2023-10-25T05:19:11.054Z,2.80
2023-10-25T05:20:10.972Z,2.60
2023-10-25T05:21:10.955Z,2.60
2023-10-25T05:22:10.919Z,2.50
2023-10-25T05:23:10.977Z,2.60
2023-10-25T05:24:10.844Z,2.70
2023-10-25T05:25:10.942Z,2.60
2023-10-25T05:26:10.803Z,2.80
2023-10-25T05:27:10.806Z,2.70
2023-10-25T05:28:10.763Z,2.60
2023-10-25T05:29:10.809Z,2.50
2023-10-25T05:30:10.746Z,3.50
2023-10-25T05:31:10.788Z,4.00
2023-10-25T05:32:10.641Z,4.00
2023-10-25T05:33:10.633Z,4.40
2023-10-25T05:34:10.614Z,4.60
2023-10-25T05:35:10.646Z,4.80
2023-10-25T05:36:10.537Z,5.00
2023-10-25T05:37:10.672Z,4.90
2023-10-25T05:38:10.473Z,4.90
2023-10-25T05:39:10.476Z,5.20
2023-10-25T05:40:10.521Z,4.50
2023-10-25T05:41:10.493Z,4.80
2023-10-25T05:42:10.379Z,4.70
2023-10-25T05:43:10.426Z,4.80
2023-10-25T05:44:10.318Z,5.30
2023-10-25T05:45:10.418Z,4.50
2023-10-25T05:46:10.361Z,5.00
2023-10-25T05:47:10.349Z,4.90
2023-10-25T05:48:10.229Z,4.70
2023-10-25T05:49:10.295Z,4.80
2023-10-25T05:50:10.172Z,4.70
2023-10-25T05:51:10.153Z,4.00
2023-10-25T05:52:10.137Z,4.30
2023-10-25T05:53:10.171Z,4.00
2023-10-25T05:54:10.048Z,4.10
2023-10-25T05:55:10.161Z,4.00
2023-10-25T05:56:10.016Z,3.70
2023-10-25T05:57:09.997Z,3.40
2023-10-25T05:58:10.041Z,3.70
2023-10-25T05:59:10.015Z,3.40
2023-10-25T06:00:09.912Z,3.60
2023-10-25T06:01:10.035Z,3.70
2023-10-25T06:02:09.895Z,3.70
2023-10-25T06:03:18.071Z,4.10
2023-10-25T06:04:09.846Z,3.80
2023-10-25T06:05:12.462Z,3.80
2023-10-25T06:06:09.735Z,3.70
2023-10-25T06:07:09.770Z,3.50
2023-10-25T06:08:09.688Z,4.00
2023-10-25T06:09:09.672Z,3.80
2023-10-25T06:10:09.684Z,3.60
2023-10-25T06:11:09.688Z,3.80
2023-10-25T06:12:09.600Z,3.50
2023-10-25T06:13:09.644Z,3.70
2023-10-25T06:14:09.535Z,3.70
2023-10-25T06:15:09.627Z,3.50
2023-10-25T06:16:09.567Z,3.90
2023-10-25T06:17:09.599Z,3.70
2023-10-25T06:18:09.449Z,4.00
2023-10-25T06:19:09.498Z,3.60
2023-10-25T06:20:09.375Z,3.70
2023-10-25T06:21:09.516Z,4.00
2023-10-25T06:22:09.328Z,4.10
2023-10-25T06:23:09.451Z,3.80
2023-10-25T06:24:09.289Z,4.10
2023-10-25T06:25:10.992Z,4.30
2023-10-25T06:26:09.220Z,4.00
2023-10-25T06:27:09.361Z,4.50
2023-10-25T06:28:09.249Z,4.70
2023-10-25T06:29:09.210Z,4.60
2023-10-25T06:30:09.132Z,4.30
2023-10-25T06:31:09.152Z,4.60
2023-10-25T06:32:09.147Z,5.10
2023-10-25T06:33:09.154Z,5.00
2023-10-25T06:34:11.874Z,5.10
2023-10-25T06:35:09.062Z,4.70
2023-10-25T06:36:08.962Z,5.20
2023-10-25T06:37:09.022Z,5.40
2023-10-25T06:38:08.907Z,5.20
2023-10-25T06:39:09.057Z,5.40
2023-10-25T06:40:08.890Z,5.30
2023-10-25T06:41:08.920Z,5.30
2023-10-25T06:42:08.791Z,5.30
2023-10-25T06:43:08.822Z,5.40
2023-10-25T06:44:08.752Z,4.90
2023-10-25T06:45:08.839Z,5.50
2023-10-25T06:46:08.756Z,5.50
2023-10-25T06:47:08.842Z,5.80
2023-10-25T06:48:08.732Z,5.20
2023-10-25T06:49:08.711Z,5.80
2023-10-25T06:50:08.618Z,5.70
2023-10-25T06:51:08.661Z,5.50
2023-10-25T06:52:08.592Z,5.70
2023-10-25T06:53:08.575Z,5.60
2023-10-25T06:54:08.494Z,5.50
2023-10-25T06:55:08.662Z,5.50
2023-10-25T06:56:08.442Z,5.20
2023-10-25T06:57:08.503Z,5.50
2023-10-25T06:58:08.411Z,5.40
2023-10-25T06:59:09.430Z,5.50
2023-10-25T07:00:08.333Z,5.50
2023-10-25T07:01:08.407Z,5.10
2023-10-25T07:02:08.301Z,5.00
2023-10-25T07:03:08.380Z,5.20
2023-10-25T07:04:08.293Z,4.90
2023-10-25T07:05:08.280Z,5.10
2023-10-25T07:06:08.165Z,5.30
2023-10-25T07:07:09.879Z,5.40
2023-10-25T07:08:08.140Z,4.70
2023-10-25T07:09:09.125Z,4.70
2023-10-25T07:10:08.133Z,5.10
2023-10-25T07:11:08.085Z,5.10
2023-10-25T07:12:08.106Z,4.90
2023-10-25T07:13:08.117Z,4.90
2023-10-25T07:14:07.963Z,5.10
2023-10-25T07:15:07.948Z,5.10
2023-10-25T07:16:08.050Z,5.40
2023-10-25T07:17:07.946Z,4.90
2023-10-25T07:18:07.891Z,4.90
2023-10-25T07:19:07.901Z,5.10
2023-10-25T07:20:07.829Z,4.80
2023-10-25T07:21:07.786Z,5.20
2023-10-25T07:22:07.788Z,4.90
2023-10-25T07:23:07.730Z,4.70
2023-10-25T07:24:07.703Z,5.10
2023-10-25T07:25:07.706Z,5.10
2023-10-25T07:26:07.653Z,4.90
2023-10-25T07:27:07.626Z,4.70
2023-10-25T07:28:07.610Z,5.00
2023-10-25T07:29:07.581Z,5.10
2023-10-25T07:30:07.580Z,4.60
2023-10-25T07:31:07.583Z,4.80
2023-10-25T07:32:07.528Z,4.50
2023-10-25T07:33:07.499Z,4.60
2023-10-25T07:34:07.484Z,5.10
2023-10-25T07:35:07.456Z,5.10
2023-10-25T07:36:07.399Z,4.60
2023-10-25T07:37:07.416Z,4.50
2023-10-25T07:38:07.337Z,4.50
2023-10-25T07:39:07.323Z,4.30
2023-10-25T07:40:07.342Z,4.40
2023-10-25T07:41:07.273Z,4.80
2023-10-25T07:42:07.265Z,4.60
2023-10-25T07:43:07.232Z,4.30
2023-10-25T07:44:07.186Z,4.30
2023-10-25T07:45:07.184Z,4.40
2023-10-25T07:46:07.200Z,4.40
2023-10-25T07:47:07.135Z,4.60
2023-10-25T07:48:07.204Z,4.70
2023-10-25T07:49:07.095Z,4.60
2023-10-25T07:50:07.038Z,4.20
2023-10-25T07:51:07.016Z,4.80
2023-10-25T07:52:07.004Z,4.60
2023-10-25T07:53:06.967Z,4.40
2023-10-25T07:54:06.944Z,4.70
2023-10-25T07:55:37.292Z,4.70
2023-10-25T07:56:39.861Z,5.00
2023-10-25T07:57:11.152Z,4.60
2023-10-25T07:59:06.849Z,4.80
2023-10-25T08:00:06.776Z,4.60
2023-10-25T08:01:06.782Z,4.40
2023-10-25T08:02:06.722Z,4.20
2023-10-25T08:03:06.919Z,4.70
2023-10-25T08:04:06.695Z,4.30
2023-10-25T08:05:09.235Z,4.30
2023-10-25T08:06:06.609Z,4.50
2023-10-25T08:07:06.595Z,4.40
2023-10-25T08:08:06.568Z,4.00
2023-10-25T08:09:06.550Z,4.20
2023-10-25T08:10:06.512Z,4.10
2023-10-25T08:11:06.497Z,4.50
2023-10-25T08:12:06.461Z,4.50
2023-10-25T08:13:06.443Z,4.20
2023-10-25T08:14:06.409Z,4.50
2023-10-25T08:15:06.441Z,4.20
2023-10-25T08:16:06.433Z,4.50
2023-10-25T08:17:06.335Z,4.40
2023-10-25T08:18:06.412Z,4.20
2023-10-25T08:19:06.289Z,4.40
2023-10-25T08:20:06.367Z,4.20
2023-10-25T08:21:06.288Z,4.10
2023-10-25T08:22:06.207Z,4.00
2023-10-25T08:23:06.175Z,4.00
2023-10-25T08:24:06.158Z,3.70
2023-10-25T08:25:06.133Z,3.60
2023-10-25T08:26:06.095Z,4.00
2023-10-25T08:27:06.076Z,4.10
2023-10-25T08:28:06.045Z,4.40
2023-10-25T08:29:06.025Z,4.60
2023-10-25T08:30:06.048Z,5.00
2023-10-25T08:31:06.005Z,4.30
2023-10-25T08:32:05.947Z,4.10
2023-10-25T08:33:05.980Z,4.60
2023-10-25T08:34:05.893Z,4.40
2023-10-25T08:35:05.901Z,4.00
2023-10-25T08:36:05.838Z,4.10
2023-10-25T08:37:05.825Z,4.30
2023-10-25T08:38:05.779Z,4.40
2023-10-25T08:39:05.768Z,4.10
2023-10-25T08:40:05.737Z,4.10
2023-10-25T08:41:05.720Z,3.80
2023-10-25T08:42:05.689Z,3.60
2023-10-25T08:43:05.673Z,3.70
2023-10-25T08:44:05.643Z,3.40
2023-10-25T08:45:05.673Z,3.60
2023-10-25T08:46:05.627Z,3.30
2023-10-25T08:47:05.570Z,3.70
2023-10-25T08:48:05.771Z,3.10
2023-10-25T08:49:05.515Z,3.80
2023-10-25T08:50:05.481Z,3.20
2023-10-25T08:51:05.473Z,3.30
2023-10-25T08:52:05.443Z,3.20
2023-10-25T08:53:05.412Z,3.20
2023-10-25T08:54:05.396Z,3.50
2023-10-25T08:55:05.354Z,3.40
2023-10-25T08:56:05.326Z,3.10
2023-10-25T08:57:05.319Z,3.20
2023-10-25T08:58:05.274Z,3.50
2023-10-25T08:59:05.261Z,3.10
2023-10-25T09:00:05.257Z,3.20
2023-10-25T09:01:05.225Z,3.20
2023-10-25T09:02:05.187Z,3.30
2023-10-25T09:03:05.256Z,3.30
2023-10-25T09:04:05.250Z,3.30
2023-10-25T09:05:05.230Z,2.90
2023-10-25T09:06:05.174Z,3.10
2023-10-25T09:07:05.093Z,3.00
2023-10-25T09:08:05.017Z,2.90
2023-10-25T09:09:05.002Z,2.90
2023-10-25T09:10:05.003Z,3.40
2023-10-25T09:11:04.945Z,3.60
2023-10-25T09:12:04.940Z,4.70
2023-10-25T09:13:04.886Z,3.30
2023-10-25T09:14:04.860Z,3.10
2023-10-25T09:15:04.897Z,3.60
2023-10-25T09:16:04.869Z,3.10
2023-10-25T09:17:04.786Z,3.30
2023-10-25T09:18:04.787Z,3.10
2023-10-25T09:19:04.762Z,3.50
2023-10-25T09:20:04.712Z,2.90
2023-10-25T09:21:12.423Z,3.60
2023-10-25T09:22:04.670Z,3.30
2023-10-25T09:23:04.661Z,2.90
2023-10-25T09:24:04.663Z,3.00
2023-10-25T09:25:04.589Z,2.90
2023-10-25T09:26:04.587Z,3.00
2023-10-25T09:27:04.544Z,3.10
2023-10-25T09:28:04.513Z,2.70
2023-10-25T09:29:04.494Z,4.40
2023-10-25T09:30:07.916Z,3.90
2023-10-25T09:31:04.471Z,3.40
2023-10-25T09:32:04.478Z,3.40
2023-10-25T09:33:04.443Z,3.10
2023-10-25T09:34:11.706Z,3.00
2023-10-25T09:36:08.635Z,2.70
2023-10-25T09:37:08.334Z,3.00
2023-10-25T09:39:12.424Z,2.70
2023-10-25T09:40:12.349Z,2.80
2023-10-25T09:42:06.214Z,22.40
2023-10-25T09:43:06.121Z,12.30
2023-10-25T09:45:10.220Z,8.40
2023-10-25T09:46:10.146Z,2.80
2023-10-25T09:48:14.302Z,3.60
2023-10-25T09:49:14.152Z,3.30
2023-10-25T09:51:18.653Z,2.50
2023-10-25T09:52:18.582Z,2.30
2023-10-25T09:54:22.681Z,2.50
2023-10-25T09:55:22.593Z,2.50
2023-10-25T09:57:26.641Z,1.90
2023-10-25T09:58:26.604Z,2.50
2023-10-25T10:00:30.762Z,2.30
2023-10-25T10:01:30.627Z,2.50
2023-10-25T10:03:34.820Z,2.30
2023-10-25T10:04:34.642Z,2.30
2023-10-25T10:06:38.730Z,2.40
2023-10-25T10:07:38.678Z,2.10
2023-10-25T10:09:42.757Z,2.20
2023-10-25T10:10:42.668Z,2.20
2023-10-25T10:12:35.711Z,2.20
2023-10-25T10:13:35.642Z,2.10
2023-10-25T10:15:39.720Z,1.90
2023-10-25T10:16:39.694Z,2.50
2023-10-25T10:18:43.843Z,3.30
2023-10-25T10:19:43.655Z,1.90
2023-10-25T10:21:47.762Z,1.90
2023-10-25T10:22:47.671Z,1.90
2023-10-25T10:24:51.765Z,1.90
2023-10-25T10:25:51.726Z,1.80
2023-10-25T10:27:55.834Z,1.80
2023-10-25T10:28:55.702Z,1.90
2023-10-25T10:30:59.843Z,1.80
2023-10-25T10:31:59.718Z,2.00
2023-10-25T10:34:03.818Z,1.80
2023-10-25T10:35:03.724Z,2.20
2023-10-25T10:37:07.843Z,1.90
2023-10-25T10:38:07.741Z,1.80
2023-10-25T10:40:12.937Z,1.80
2023-10-25T10:41:11.749Z,2.00
2023-10-25T10:43:15.868Z,1.90
2023-10-25T10:44:15.777Z,1.70
2023-10-25T10:46:19.888Z,4.30
2023-10-25T10:47:19.793Z,6.80
2023-10-25T10:49:24.720Z,2.60
2023-10-25T10:50:24.732Z,2.30
2023-10-25T10:52:17.660Z,2.60
2023-10-25T10:53:17.592Z,2.30
2023-10-25T10:55:21.697Z,3.50
2023-10-25T10:56:21.865Z,3.30
2023-10-25T10:58:26.528Z,6.60
2023-10-25T10:59:26.441Z,4.10
2023-10-25T11:01:30.455Z,3.10
2023-10-25T11:02:30.412Z,3.10
2023-10-25T11:04:34.454Z,5.50
2023-10-25T11:05:34.384Z,3.60
2023-10-25T11:07:38.447Z,3.50
2023-10-25T11:08:38.429Z,3.30
2023-10-25T11:10:42.491Z,3.90
2023-10-25T11:11:42.424Z,4.30
2023-10-25T11:13:47.414Z,2.90
2023-10-25T11:14:47.241Z,3.00
2023-10-25T11:16:51.313Z,3.00
2023-10-25T11:17:51.281Z,2.90
2023-10-25T11:19:55.327Z,2.70
2023-10-25T11:20:55.290Z,3.10
2023-10-25T11:23:00.182Z,2.90
2023-10-25T11:24:00.171Z,2.80
2023-10-25T11:26:04.194Z,3.00
2023-10-25T11:27:04.099Z,2.80
2023-10-25T11:29:08.209Z,3.20
2023-10-25T11:30:08.115Z,2.80
2023-10-25T11:32:04.617Z,2.10
2023-10-25T11:33:02.065Z,2.20
2023-10-25T11:35:05.983Z,3.00
2023-10-25T11:36:05.985Z,3.70
2023-10-25T11:38:10.007Z,3.10
2023-10-25T11:39:09.920Z,3.60
2023-10-25T11:41:14.014Z,3.40
2023-10-25T11:42:13.927Z,3.40
2023-10-25T11:44:18.034Z,3.50
2023-10-25T11:45:17.971Z,3.20
2023-10-25T11:47:22.016Z,3.10
2023-10-25T11:48:22.075Z,2.60
2023-10-25T11:50:26.110Z,2.60
2023-10-25T11:51:25.984Z,2.30
2023-10-25T11:53:30.138Z,2.30
2023-10-25T11:54:30.019Z,2.10
2023-10-25T11:56:34.115Z,3.00
2023-10-25T11:57:34.026Z,3.30
2023-10-25T11:59:38.162Z,2.40
2023-10-25T12:00:38.029Z,2.80
2023-10-25T12:02:31.155Z,3.30
2023-10-25T12:03:31.062Z,2.90
2023-10-25T12:05:35.103Z,3.20
2023-10-25T12:06:35.004Z,3.00
2023-10-25T12:08:39.232Z,10.40
2023-10-25T12:09:39.009Z,8.80
2023-10-25T12:11:43.132Z,7.30
2023-10-25T12:12:43.042Z,13.80
2023-10-25T12:14:47.293Z,4.90
2023-10-25T12:15:47.064Z,12.10
2023-10-25T12:17:51.234Z,8.40
2023-10-25T12:18:51.067Z,6.50
2023-10-25T12:20:55.222Z,5.90
2023-10-25T12:21:55.096Z,5.60
2023-10-25T12:23:59.234Z,6.00
2023-10-25T12:24:59.097Z,4.20
2023-10-25T12:27:03.208Z,4.00
2023-10-25T12:28:03.109Z,6.50
2023-10-25T12:30:07.263Z,3.90
2023-10-25T12:31:07.168Z,4.60
2023-10-25T12:33:11.295Z,5.50
2023-10-25T12:34:11.132Z,4.80
2023-10-25T12:36:15.230Z,4.50
2023-10-25T12:37:15.164Z,4.00
2023-10-25T12:39:19.246Z,3.90
2023-10-25T12:40:19.188Z,4.10
2023-10-25T12:42:12.216Z,3.90
2023-10-25T12:43:12.119Z,4.20
2023-10-25T12:45:16.235Z,4.10
2023-10-25T12:46:16.151Z,4.00
2023-10-25T12:48:20.340Z,4.20
2023-10-25T12:49:20.157Z,4.00
2023-10-25T12:51:24.357Z,4.00
2023-10-25T12:52:24.169Z,4.40
2023-10-25T12:54:28.260Z,5.70
2023-10-25T12:55:28.189Z,4.10
2023-10-25T12:57:32.285Z,4.60
2023-10-25T12:58:32.187Z,4.90
2023-10-25T13:00:36.293Z,4.40
2023-10-25T13:01:36.233Z,4.20
2023-10-25T13:03:41.176Z,5.10
2023-10-25T13:04:41.159Z,4.90
2023-10-25T13:06:45.139Z,4.30
2023-10-25T13:07:45.091Z,4.60
2023-10-25T13:09:49.156Z,4.10
2023-10-25T13:10:49.078Z,4.20
2023-10-25T13:12:53.172Z,3.80
2023-10-25T13:13:53.092Z,4.00
2023-10-25T13:15:57.237Z,4.00
2023-10-25T13:17:08.579Z,4.20
2023-10-25T13:19:02.016Z,4.10
2023-10-25T13:20:01.932Z,3.90
2023-10-25T13:21:54.975Z,4.00
2023-10-25T13:22:54.900Z,4.00
2023-10-25T13:24:59.002Z,3.80
2023-10-25T13:25:58.915Z,3.70
2023-10-25T13:28:03.015Z,4.10
2023-10-25T13:29:02.943Z,3.90
2023-10-25T13:31:07.031Z,3.90
2023-10-25T13:32:06.941Z,4.10
2023-10-25T13:34:11.042Z,3.80
2023-10-25T13:35:11.053Z,3.60
2023-10-25T13:37:15.051Z,3.90
2023-10-25T13:38:14.973Z,3.80
2023-10-25T13:40:19.069Z,3.70
2023-10-25T13:41:18.985Z,4.00
2023-10-25T13:43:23.899Z,3.80
2023-10-25T13:44:23.824Z,3.30
2023-10-25T13:46:27.919Z,3.90
2023-10-25T13:47:27.933Z,3.80
2023-10-25T13:49:31.924Z,3.70
2023-10-25T13:50:31.902Z,4.00
2023-10-25T13:52:25.721Z,3.50
2023-10-25T13:53:25.627Z,3.50
2023-10-25T13:55:29.732Z,3.80
2023-10-25T13:56:29.677Z,3.60
2023-10-25T13:58:34.559Z,3.90
2023-10-25T13:59:34.497Z,3.60
2023-10-25T14:01:38.599Z,3.80
2023-10-25T14:02:38.626Z,3.60
2023-10-25T14:04:42.583Z,3.60
2023-10-25T14:05:42.712Z,3.70
2023-10-25T14:07:46.559Z,4.60
2023-10-25T14:08:46.583Z,6.60
2023-10-25T14:10:50.614Z,7.60
2023-10-25T14:11:51.955Z,13.00
2023-10-25T14:13:54.627Z,4.10
2023-10-25T14:14:54.580Z,5.10
2023-10-25T14:16:58.653Z,4.60
2023-10-25T14:17:58.643Z,4.50
2023-10-25T14:20:03.484Z,4.10
2023-10-25T14:21:03.475Z,4.30
2023-10-25T14:23:08.310Z,4.50
2023-10-25T14:24:08.191Z,8.40
2023-10-25T14:26:12.221Z,4.60
2023-10-25T14:27:12.277Z,4.10
2023-10-25T14:29:16.272Z,4.10
2023-10-25T14:30:16.219Z,5.40
2023-10-25T14:32:09.194Z,5.10
2023-10-25T14:33:09.156Z,4.30
2023-10-25T14:35:13.210Z,4.90
2023-10-25T14:36:13.136Z,4.30
2023-10-25T14:38:17.228Z,3.70
2023-10-25T14:39:17.136Z,4.40
2023-10-25T14:41:21.239Z,4.30
2023-10-25T14:42:21.160Z,4.20
2023-10-25T14:44:25.269Z,3.80
2023-10-25T14:45:25.195Z,4.30
2023-10-25T14:47:30.165Z,4.10
2023-10-25T14:48:30.078Z,4.10
2023-10-25T14:50:34.148Z,4.00
2023-10-25T14:51:34.047Z,4.00
2023-10-25T14:53:38.154Z,3.90
2023-10-25T14:54:38.046Z,3.50
2023-10-25T14:56:42.119Z,3.70
2023-10-25T14:57:42.123Z,4.00
2023-10-25T14:59:47.739Z,3.80
2023-10-25T15:00:46.112Z,3.90
2023-10-25T15:02:50.205Z,3.80
2023-10-25T15:03:50.372Z,4.10
2023-10-25T15:05:54.254Z,4.20
2023-10-25T15:06:54.104Z,3.70
2023-10-25T15:08:58.338Z,3.60
2023-10-25T15:09:58.115Z,3.90
2023-10-25T15:11:52.015Z,4.40
2023-10-25T15:12:51.893Z,4.80
2023-10-25T15:14:56.937Z,7.30
2023-10-25T15:15:56.729Z,6.00
2023-10-25T15:18:01.677Z,4.80
2023-10-25T15:19:01.564Z,5.20
2023-10-25T15:21:06.546Z,7.20
2023-10-25T15:22:06.398Z,7.70
2023-10-25T15:24:12.578Z,6.00
2023-10-25T15:25:11.502Z,9.80
2023-10-25T15:27:16.455Z,5.60
2023-10-25T15:28:16.263Z,5.20
2023-10-25T15:30:21.412Z,5.50
2023-10-25T15:31:21.288Z,5.20
2023-10-25T15:33:26.550Z,14.70
2023-10-25T15:34:26.142Z,13.50
2023-10-25T15:36:30.342Z,12.50
2023-10-25T15:37:30.152Z,10.90
2023-10-25T15:39:34.291Z,9.00
2023-10-25T15:40:34.431Z,12.20
2023-10-25T15:42:27.224Z,13.70
2023-10-25T15:43:27.140Z,8.80
2023-10-25T15:45:31.274Z,7.60
2023-10-25T15:46:31.203Z,5.20
2023-10-25T15:48:35.298Z,7.90
2023-10-25T15:49:35.160Z,4.50
2023-10-25T15:51:39.249Z,4.40
2023-10-25T15:52:39.328Z,4.70
2023-10-25T15:54:43.382Z,4.30
2023-10-25T15:55:43.191Z,4.40
2023-10-25T15:57:47.285Z,4.50
2023-10-25T15:58:47.198Z,4.30
2023-10-25T16:00:51.325Z,4.00
2023-10-25T16:02:09.134Z,4.90
2023-10-25T16:03:56.233Z,3.80
2023-10-25T16:04:56.079Z,4.20
2023-10-25T16:07:00.161Z,4.20
2023-10-25T16:08:00.123Z,4.00
2023-10-25T16:10:04.998Z,3.90
2023-10-25T16:11:04.904Z,3.70
2023-10-25T16:13:09.024Z,3.90
2023-10-25T16:14:08.937Z,3.70
2023-10-25T16:16:13.027Z,3.30
2023-10-25T16:17:12.983Z,3.70
2023-10-25T16:19:17.002Z,3.50
2023-10-25T16:20:17.014Z,3.50
2023-10-25T16:22:10.921Z,3.40
2023-10-25T16:23:10.742Z,4.30
2023-10-25T16:25:14.947Z,3.60
2023-10-25T16:26:14.760Z,3.70
2023-10-25T16:28:18.968Z,3.90
2023-10-25T16:29:18.768Z,4.30
2023-10-25T16:31:22.822Z,4.00
2023-10-25T16:32:22.969Z,4.80
2023-10-25T16:34:27.917Z,5.50
2023-10-25T16:35:27.726Z,5.80
2023-10-25T16:37:32.746Z,5.10
2023-10-25T16:38:32.559Z,4.50
2023-10-25T16:40:36.768Z,5.60
2023-10-25T16:41:36.596Z,7.70
2023-10-25T16:43:40.768Z,7.10
2023-10-25T16:44:40.697Z,6.80
2023-10-25T16:46:44.860Z,7.70
2023-10-25T16:47:44.677Z,8.10
2023-10-25T16:49:48.807Z,7.60
2023-10-25T16:50:48.638Z,11.20
2023-10-25T16:52:52.816Z,6.50
2023-10-25T16:53:52.667Z,5.90
2023-10-25T16:55:56.982Z,4.90
2023-10-25T16:56:56.670Z,4.60
2023-10-25T16:59:01.665Z,4.70
2023-10-25T17:00:01.555Z,4.90
2023-10-25T17:01:54.888Z,5.00
2023-10-25T17:02:54.551Z,4.90
2023-10-25T17:04:59.497Z,4.70
2023-10-25T17:05:59.328Z,4.50
2023-10-25T17:08:03.480Z,4.90
2023-10-25T17:09:03.312Z,4.90
2023-10-25T17:11:07.488Z,4.60
2023-10-25T17:12:07.360Z,4.50
2023-10-25T17:14:11.404Z,4.30
2023-10-25T17:15:11.466Z,6.00
2023-10-25T17:17:15.520Z,5.20
2023-10-25T17:18:15.569Z,5.00
2023-10-25T17:20:19.530Z,5.00
2023-10-25T17:21:19.353Z,5.20
2023-10-25T17:23:23.642Z,5.00
2023-10-25T17:24:23.363Z,5.40